Disclaimer

Please do not use the information listed here in-flight or in-navigation, as they are not provided to us by the airports but are provided by volunteers, so they might be outdated.

Search


Regions


Airport information page

Radio informations:
OAKLAND OCEANIC - 8843 MHz
OPS AAS - 128.0 MHz

Airport informations:
Latitude: 19° 16' 55.44" N
Longitude: 166° 38' 11.20" E
Elevation: 14 feet - 4 meters
Operating hours: Remarks
Operating agency: US Air Force
Timezone: UTC+12
Fuel: JP-5, Keroscene MIL Spec T-5624

Runway information:
10/28 - 9843 x 150 feet< - >3000 x 46 meters

Recent METARs:
PWAK 141658Z AUTO 06012KT 9999 CLR 27/24 A2990 RMK AO2 SLP131
PWAK 141658Z AUTO 06012KT 9999 CLR 27/24 A2990 RMK AO2 SLP131
PWAK 141658Z AUTO 06012KT 9999 CLR 27/24 A2990 RMK AO2 SLP131

Airport on the map: